sensor_id;sensor_type;location;lat;lon;timestamp;pressure;altitude;pressure_sealevel;temperature;humidity
37304;BME280;23188;51.188;16.374;2023-05-20T00:02:35;101156.84;;;13.67;100.00
37304;BME280;23188;51.188;16.374;2023-05-20T00:06:38;101153.16;;;13.69;100.00
37304;BME280;23188;51.188;16.374;2023-05-20T00:10:41;101145.80;;;13.67;100.00
37304;BME280;23188;51.188;16.374;2023-05-20T00:14:45;101140.33;;;13.71;100.00
37304;BME280;23188;51.188;16.374;2023-05-20T00:18:49;101138.91;;;13.73;100.00
37304;BME280;23188;51.188;16.374;2023-05-20T00:22:53;101143.41;;;13.73;100.00
37304;BME280;23188;51.188;16.374;2023-05-20T00:26:56;101147.17;;;13.68;100.00
37304;BME280;23188;51.188;16.374;2023-05-20T00:30:59;101154.25;;;13.66;100.00
37304;BME280;23188;51.188;16.374;2023-05-20T00:35:02;101153.27;;;13.65;100.00
37304;BME280;23188;51.188;16.374;2023-05-20T00:39:06;101158.21;;;13.66;100.00
37304;BME280;23188;51.188;16.374;2023-05-20T00:43:10;101153.39;;;13.66;100.00
37304;BME280;23188;51.188;16.374;2023-05-20T00:47:23;101151.91;;;13.62;100.00
37304;BME280;23188;51.188;16.374;2023-05-20T00:51:28;101152.30;;;13.60;100.00
37304;BME280;23188;51.188;16.374;2023-05-20T00:55:31;101153.69;;;13.62;100.00
37304;BME280;23188;51.188;16.374;2023-05-20T00:59:35;101149.63;;;13.66;100.00
37304;BME280;23188;51.188;16.374;2023-05-20T01:03:40;101145.16;;;13.71;100.00
37304;BME280;23188;51.188;16.374;2023-05-20T01:07:44;101146.40;;;13.73;100.00
37304;BME280;23188;51.188;16.374;2023-05-20T01:11:49;101144.13;;;13.72;100.00
37304;BME280;23188;51.188;16.374;2023-05-20T01:15:54;101141.06;;;13.75;100.00
37304;BME280;23188;51.188;16.374;2023-05-20T01:19:59;101144.45;;;13.73;100.00
37304;BME280;23188;51.188;16.374;2023-05-20T01:24:03;101142.39;;;13.72;100.00
37304;BME280;23188;51.188;16.374;2023-05-20T01:28:07;101144.66;;;13.70;100.00
37304;BME280;23188;51.188;16.374;2023-05-20T01:32:40;101141.80;;;13.73;100.00
37304;BME280;23188;51.188;16.374;2023-05-20T01:36:40;101137.51;;;13.73;100.00
37304;BME280;23188;51.188;16.374;2023-05-20T01:40:45;101132.93;;;13.72;100.00
37304;BME280;23188;51.188;16.374;2023-05-20T01:44:48;101134.34;;;13.72;100.00
37304;BME280;23188;51.188;16.374;2023-05-20T01:48:51;101136.11;;;13.70;100.00
37304;BME280;23188;51.188;16.374;2023-05-20T01:52:54;101138.68;;;13.69;100.00
37304;BME280;23188;51.188;16.374;2023-05-20T01:56:58;101136.73;;;13.67;100.00
37304;BME280;23188;51.188;16.374;2023-05-20T02:01:01;101142.33;;;13.66;100.00
37304;BME280;23188;51.188;16.374;2023-05-20T02:05:05;101140.58;;;13.62;100.00
37304;BME280;23188;51.188;16.374;2023-05-20T02:09:08;101148.36;;;13.60;100.00
37304;BME280;23188;51.188;16.374;2023-05-20T02:13:11;101147.84;;;13.60;100.00
37304;BME280;23188;51.188;16.374;2023-05-20T02:17:16;101146.10;;;13.59;100.00
37304;BME280;23188;51.188;16.374;2023-05-20T02:21:19;101149.40;;;13.58;100.00
37304;BME280;23188;51.188;16.374;2023-05-20T02:25:22;101146.86;;;13.59;100.00
37304;BME280;23188;51.188;16.374;2023-05-20T02:29:26;101144.35;;;13.59;100.00
37304;BME280;23188;51.188;16.374;2023-05-20T02:33:29;101141.77;;;13.62;100.00
37304;BME280;23188;51.188;16.374;2023-05-20T02:37:32;101145.65;;;13.60;100.00
37304;BME280;23188;51.188;16.374;2023-05-20T02:41:36;101146.12;;;13.57;100.00
37304;BME280;23188;51.188;16.374;2023-05-20T02:45:39;101147.13;;;13.55;100.00
37304;BME280;23188;51.188;16.374;2023-05-20T02:49:43;101147.08;;;13.51;100.00
37304;BME280;23188;51.188;16.374;2023-05-20T02:53:46;101147.67;;;13.52;100.00
37304;BME280;23188;51.188;16.374;2023-05-20T02:57:49;101143.61;;;13.52;100.00
37304;BME280;23188;51.188;16.374;2023-05-20T03:01:53;101146.27;;;13.50;100.00
37304;BME280;23188;51.188;16.374;2023-05-20T03:05:56;101147.63;;;13.49;100.00
37304;BME280;23188;51.188;16.374;2023-05-20T03:09:59;101141.25;;;13.46;100.00
37304;BME280;23188;51.188;16.374;2023-05-20T03:14:04;101146.27;;;13.46;100.00
37304;BME280;23188;51.188;16.374;2023-05-20T03:18:07;101150.39;;;13.45;100.00
37304;BME280;23188;51.188;16.374;2023-05-20T03:22:11;101151.77;;;13.46;100.00
37304;BME280;23188;51.188;16.374;2023-05-20T03:26:14;101150.81;;;13.42;100.00
37304;BME280;23188;51.188;16.374;2023-05-20T03:30:17;101145.80;;;13.42;100.00
37304;BME280;23188;51.188;16.374;2023-05-20T03:34:21;101144.21;;;13.45;100.00
37304;BME280;23188;51.188;16.374;2023-05-20T03:38:25;101148.36;;;13.44;100.00
37304;BME280;23188;51.188;16.374;2023-05-20T03:42:28;101149.59;;;13.44;100.00
37304;BME280;23188;51.188;16.374;2023-05-20T03:46:31;101144.34;;;13.43;100.00
37304;BME280;23188;51.188;16.374;2023-05-20T03:50:36;101146.73;;;13.44;100.00
37304;BME280;23188;51.188;16.374;2023-05-20T03:54:39;101157.53;;;13.47;100.00
37304;BME280;23188;51.188;16.374;2023-05-20T03:58:42;101160.05;;;13.49;100.00
37304;BME280;23188;51.188;16.374;2023-05-20T04:02:45;101158.30;;;13.53;100.00
37304;BME280;23188;51.188;16.374;2023-05-20T04:06:48;101163.30;;;13.60;100.00
37304;BME280;23188;51.188;16.374;2023-05-20T04:10:55;101167.73;;;13.67;100.00
37304;BME280;23188;51.188;16.374;2023-05-20T04:14:59;101168.86;;;13.78;100.00
37304;BME280;23188;51.188;16.374;2023-05-20T04:19:05;101174.43;;;13.83;100.00
37304;BME280;23188;51.188;16.374;2023-05-20T04:23:09;101172.91;;;13.84;100.00
37304;BME280;23188;51.188;16.374;2023-05-20T04:27:12;101166.67;;;13.87;100.00
37304;BME280;23188;51.188;16.374;2023-05-20T04:31:15;101169.11;;;13.90;100.00
37304;BME280;23188;51.188;16.374;2023-05-20T04:35:19;101171.80;;;13.92;100.00
37304;BME280;23188;51.188;16.374;2023-05-20T04:39:22;101174.71;;;13.93;100.00
37304;BME280;23188;51.188;16.374;2023-05-20T04:43:25;101179.80;;;13.92;100.00
37304;BME280;23188;51.188;16.374;2023-05-20T04:47:31;101184.23;;;13.92;100.00
37304;BME280;23188;51.188;16.374;2023-05-20T04:51:40;101181.48;;;13.94;100.00
37304;BME280;23188;51.188;16.374;2023-05-20T04:55:44;101185.86;;;13.97;100.00
37304;BME280;23188;51.188;16.374;2023-05-20T04:59:47;101182.82;;;14.01;100.00
37304;BME280;23188;51.188;16.374;2023-05-20T05:03:51;101180.92;;;14.07;100.00
37304;BME280;23188;51.188;16.374;2023-05-20T05:07:54;101179.05;;;14.06;100.00
37304;BME280;23188;51.188;16.374;2023-05-20T05:11:57;101182.80;;;14.10;100.00
37304;BME280;23188;51.188;16.374;2023-05-20T05:16:01;101183.58;;;14.11;100.00
37304;BME280;23188;51.188;16.374;2023-05-20T05:20:05;101176.95;;;14.10;100.00
37304;BME280;23188;51.188;16.374;2023-05-20T05:24:10;101173.88;;;14.10;100.00
37304;BME280;23188;51.188;16.374;2023-05-20T05:28:13;101176.61;;;14.16;100.00
37304;BME280;23188;51.188;16.374;2023-05-20T05:32:16;101176.89;;;14.23;100.00
37304;BME280;23188;51.188;16.374;2023-05-20T05:36:19;101180.36;;;14.23;100.00
37304;BME280;23188;51.188;16.374;2023-05-20T05:40:22;101180.71;;;14.25;100.00
37304;BME280;23188;51.188;16.374;2023-05-20T05:44:25;101182.85;;;14.25;100.00
37304;BME280;23188;51.188;16.374;2023-05-20T05:48:28;101181.05;;;14.25;100.00
37304;BME280;23188;51.188;16.374;2023-05-20T05:52:32;101180.28;;;14.17;100.00
37304;BME280;23188;51.188;16.374;2023-05-20T05:56:35;101183.63;;;14.10;100.00
37304;BME280;23188;51.188;16.374;2023-05-20T06:00:38;101175.29;;;14.15;100.00
37304;BME280;23188;51.188;16.374;2023-05-20T06:04:41;101181.85;;;14.20;100.00
37304;BME280;23188;51.188;16.374;2023-05-20T06:08:44;101178.92;;;14.23;100.00
37304;BME280;23188;51.188;16.374;2023-05-20T06:12:48;101186.77;;;14.25;100.00
37304;BME280;23188;51.188;16.374;2023-05-20T06:16:51;101189.74;;;14.23;100.00
37304;BME280;23188;51.188;16.374;2023-05-20T06:20:55;101188.84;;;14.26;100.00
37304;BME280;23188;51.188;16.374;2023-05-20T06:24:59;101183.56;;;14.29;100.00
37304;BME280;23188;51.188;16.374;2023-05-20T06:29:04;101179.48;;;14.22;100.00
37304;BME280;23188;51.188;16.374;2023-05-20T06:33:07;101174.10;;;14.18;100.00
37304;BME280;23188;51.188;16.374;2023-05-20T06:37:10;101177.37;;;14.20;100.00
37304;BME280;23188;51.188;16.374;2023-05-20T06:41:13;101184.09;;;14.21;100.00
37304;BME280;23188;51.188;16.374;2023-05-20T06:45:17;101177.52;;;14.20;100.00
37304;BME280;23188;51.188;16.374;2023-05-20T06:49:20;101184.55;;;14.28;100.00
37304;BME280;23188;51.188;16.374;2023-05-20T06:53:23;101187.86;;;14.37;100.00
37304;BME280;23188;51.188;16.374;2023-05-20T06:57:26;101184.64;;;14.44;100.00
37304;BME280;23188;51.188;16.374;2023-05-20T07:01:29;101183.81;;;14.46;100.00
37304;BME280;23188;51.188;16.374;2023-05-20T07:05:32;101179.77;;;14.53;100.00
37304;BME280;23188;51.188;16.374;2023-05-20T07:09:36;101177.95;;;14.60;100.00
37304;BME280;23188;51.188;16.374;2023-05-20T07:13:39;101185.80;;;14.62;100.00
37304;BME280;23188;51.188;16.374;2023-05-20T07:17:42;101180.10;;;14.62;100.00
37304;BME280;23188;51.188;16.374;2023-05-20T07:21:45;101181.59;;;14.61;100.00
37304;BME280;23188;51.188;16.374;2023-05-20T07:25:48;101178.36;;;14.59;100.00
37304;BME280;23188;51.188;16.374;2023-05-20T07:29:52;101174.54;;;14.65;100.00
37304;BME280;23188;51.188;16.374;2023-05-20T07:33:55;101176.90;;;14.68;100.00
37304;BME280;23188;51.188;16.374;2023-05-20T07:37:58;101175.45;;;14.75;100.00
37304;BME280;23188;51.188;16.374;2023-05-20T07:42:01;101174.40;;;14.78;100.00
37304;BME280;23188;51.188;16.374;2023-05-20T07:46:04;101180.05;;;14.71;100.00
37304;BME280;23188;51.188;16.374;2023-05-20T07:50:07;101174.64;;;14.70;100.00
37304;BME280;23188;51.188;16.374;2023-05-20T07:54:11;101172.97;;;14.75;100.00
37304;BME280;23188;51.188;16.374;2023-05-20T07:58:14;101173.23;;;14.84;100.00
37304;BME280;23188;51.188;16.374;2023-05-20T08:02:17;101164.80;;;14.93;100.00
37304;BME280;23188;51.188;16.374;2023-05-20T08:06:20;101158.63;;;15.03;99.91
37304;BME280;23188;51.188;16.374;2023-05-20T08:10:23;101148.48;;;15.09;99.35
37304;BME280;23188;51.188;16.374;2023-05-20T08:14:26;101145.41;;;15.19;99.36
37304;BME280;23188;51.188;16.374;2023-05-20T08:18:30;101144.24;;;15.24;98.75
37304;BME280;23188;51.188;16.374;2023-05-20T08:22:34;101149.55;;;15.27;99.01
37304;BME280;23188;51.188;16.374;2023-05-20T08:26:39;101156.54;;;15.33;98.15
37304;BME280;23188;51.188;16.374;2023-05-20T08:30:42;101155.55;;;15.40;98.04
37304;BME280;23188;51.188;16.374;2023-05-20T08:34:46;101142.42;;;15.47;98.47
37304;BME280;23188;51.188;16.374;2023-05-20T08:38:50;101139.30;;;15.52;97.95
37304;BME280;23188;51.188;16.374;2023-05-20T08:42:54;101135.91;;;15.63;98.14
37304;BME280;23188;51.188;16.374;2023-05-20T08:46:58;101136.29;;;15.70;97.37
37304;BME280;23188;51.188;16.374;2023-05-20T08:51:02;101136.98;;;15.74;97.89
37304;BME280;23188;51.188;16.374;2023-05-20T08:55:08;101140.09;;;15.80;96.45
37304;BME280;23188;51.188;16.374;2023-05-20T08:59:13;101133.73;;;15.83;95.77
37304;BME280;23188;51.188;16.374;2023-05-20T09:03:17;101130.36;;;15.91;95.03
37304;BME280;23188;51.188;16.374;2023-05-20T09:07:28;101126.36;;;16.05;96.12
37304;BME280;23188;51.188;16.374;2023-05-20T09:11:31;101124.23;;;16.21;93.53
37304;BME280;23188;51.188;16.374;2023-05-20T09:15:35;101121.82;;;16.37;94.36
37304;BME280;23188;51.188;16.374;2023-05-20T09:19:39;101119.74;;;16.52;92.84
37304;BME280;23188;51.188;16.374;2023-05-20T09:23:47;101121.48;;;16.61;90.27
37304;BME280;23188;51.188;16.374;2023-05-20T09:27:51;101122.72;;;16.64;89.08
37304;BME280;23188;51.188;16.374;2023-05-20T09:31:54;101114.69;;;16.68;89.72
37304;BME280;23188;51.188;16.374;2023-05-20T09:36:07;101109.52;;;16.69;89.59
37304;BME280;23188;51.188;16.374;2023-05-20T09:40:11;101105.79;;;16.84;89.64
37304;BME280;23188;51.188;16.374;2023-05-20T09:44:16;101106.00;;;17.02;88.30
37304;BME280;23188;51.188;16.374;2023-05-20T09:48:20;101107.19;;;17.13;87.11
37304;BME280;23188;51.188;16.374;2023-05-20T09:52:25;101111.59;;;17.22;87.35
37304;BME280;23188;51.188;16.374;2023-05-20T09:56:29;101104.91;;;17.31;86.71
37304;BME280;23188;51.188;16.374;2023-05-20T10:00:33;101102.92;;;17.39;85.51
37304;BME280;23188;51.188;16.374;2023-05-20T10:04:41;101102.30;;;17.57;85.52
37304;BME280;23188;51.188;16.374;2023-05-20T10:09:04;101100.70;;;17.75;84.75
37304;BME280;23188;51.188;16.374;2023-05-20T10:13:48;101094.46;;;17.91;83.51
37304;BME280;23188;51.188;16.374;2023-05-20T10:22:03;101089.53;;;17.99;82.67
37304;BME280;23188;51.188;16.374;2023-05-20T10:26:06;101090.43;;;18.04;83.44
37304;BME280;23188;51.188;16.374;2023-05-20T10:30:20;101094.29;;;18.14;82.24
37304;BME280;23188;51.188;16.374;2023-05-20T10:34:23;101086.41;;;18.20;82.19
37304;BME280;23188;51.188;16.374;2023-05-20T10:38:26;101089.07;;;18.22;81.92
37304;BME280;23188;51.188;16.374;2023-05-20T10:42:29;101083.96;;;18.28;82.63
37304;BME280;23188;51.188;16.374;2023-05-20T10:46:33;101075.91;;;18.43;83.19
37304;BME280;23188;51.188;16.374;2023-05-20T10:51:01;101074.95;;;18.63;81.23
37304;BME280;23188;51.188;16.374;2023-05-20T10:55:18;101073.89;;;18.72;80.65
37304;BME280;23188;51.188;16.374;2023-05-20T10:59:21;101070.95;;;18.84;80.28
37304;BME280;23188;51.188;16.374;2023-05-20T11:03:24;101069.92;;;18.86;79.81
37304;BME280;23188;51.188;16.374;2023-05-20T11:07:29;101065.70;;;18.66;80.08
37304;BME280;23188;51.188;16.374;2023-05-20T11:11:32;101062.67;;;18.65;81.70
37304;BME280;23188;51.188;16.374;2023-05-20T11:15:35;101055.06;;;18.77;80.93
37304;BME280;23188;51.188;16.374;2023-05-20T11:19:38;101050.17;;;18.87;81.64
37304;BME280;23188;51.188;16.374;2023-05-20T11:23:41;101043.56;;;19.04;81.18
37304;BME280;23188;51.188;16.374;2023-05-20T11:27:44;101040.55;;;19.26;81.59
37304;BME280;23188;51.188;16.374;2023-05-20T11:31:51;101038.44;;;19.44;79.91
37304;BME280;23188;51.188;16.374;2023-05-20T11:35:55;101039.14;;;19.49;79.02
37304;BME280;23188;51.188;16.374;2023-05-20T11:40:04;101035.90;;;19.53;77.90
37304;BME280;23188;51.188;16.374;2023-05-20T11:44:10;101033.16;;;19.53;77.37
37304;BME280;23188;51.188;16.374;2023-05-20T11:48:16;101027.75;;;19.63;78.39
37304;BME280;23188;51.188;16.374;2023-05-20T11:52:18;101024.52;;;19.73;80.04
37304;BME280;23188;51.188;16.374;2023-05-20T11:56:21;101018.21;;;19.89;76.99
37304;BME280;23188;51.188;16.374;2023-05-20T12:00:25;101017.75;;;20.01;76.94
37304;BME280;23188;51.188;16.374;2023-05-20T12:04:33;101019.47;;;20.07;77.80
37304;BME280;23188;51.188;16.374;2023-05-20T12:08:36;101014.45;;;19.95;77.48
37304;BME280;23188;51.188;16.374;2023-05-20T12:12:39;101019.11;;;19.88;77.19
37304;BME280;23188;51.188;16.374;2023-05-20T12:16:42;101010.55;;;20.06;77.69
37304;BME280;23188;51.188;16.374;2023-05-20T12:20:45;101002.14;;;20.14;79.34
37304;BME280;23188;51.188;16.374;2023-05-20T12:24:49;101000.89;;;20.28;77.28
37304;BME280;23188;51.188;16.374;2023-05-20T12:28:54;100998.79;;;20.40;76.29
37304;BME280;23188;51.188;16.374;2023-05-20T12:32:57;100996.94;;;20.28;76.03
37304;BME280;23188;51.188;16.374;2023-05-20T12:37:01;100998.45;;;20.26;75.62
37304;BME280;23188;51.188;16.374;2023-05-20T12:41:04;100996.95;;;20.18;76.76
37304;BME280;23188;51.188;16.374;2023-05-20T12:45:07;100995.05;;;20.00;78.73
37304;BME280;23188;51.188;16.374;2023-05-20T12:49:11;100986.85;;;19.96;78.26
37304;BME280;23188;51.188;16.374;2023-05-20T12:53:14;100979.30;;;20.02;78.86
37304;BME280;23188;51.188;16.374;2023-05-20T12:57:18;100976.66;;;20.23;77.69
37304;BME280;23188;51.188;16.374;2023-05-20T13:01:21;100974.89;;;20.29;78.17
37304;BME280;23188;51.188;16.374;2023-05-20T13:05:24;100972.16;;;20.29;78.96
37304;BME280;23188;51.188;16.374;2023-05-20T13:09:27;100966.52;;;20.15;78.42
37304;BME280;23188;51.188;16.374;2023-05-20T13:13:30;100968.42;;;20.15;79.39
37304;BME280;23188;51.188;16.374;2023-05-20T13:17:33;100963.92;;;20.13;79.81
37304;BME280;23188;51.188;16.374;2023-05-20T13:21:36;100963.77;;;20.17;79.36
37304;BME280;23188;51.188;16.374;2023-05-20T13:25:39;100959.48;;;20.16;78.97
37304;BME280;23188;51.188;16.374;2023-05-20T13:29:43;100963.17;;;20.03;79.72
37304;BME280;23188;51.188;16.374;2023-05-20T13:33:46;100967.73;;;19.83;81.14
37304;BME280;23188;51.188;16.374;2023-05-20T13:37:49;100970.88;;;19.72;81.34
37304;BME280;23188;51.188;16.374;2023-05-20T13:41:52;100975.09;;;19.61;80.28
37304;BME280;23188;51.188;16.374;2023-05-20T13:45:56;100974.38;;;19.56;83.03
37304;BME280;23188;51.188;16.374;2023-05-20T13:50:00;100968.14;;;19.52;84.14
37304;BME280;23188;51.188;16.374;2023-05-20T13:54:05;100966.09;;;19.47;83.05
37304;BME280;23188;51.188;16.374;2023-05-20T13:58:08;100965.79;;;19.56;83.94
37304;BME280;23188;51.188;16.374;2023-05-20T14:02:11;100959.30;;;19.64;83.13
37304;BME280;23188;51.188;16.374;2023-05-20T14:06:15;100951.62;;;19.66;82.63
37304;BME280;23188;51.188;16.374;2023-05-20T14:10:20;100948.14;;;19.58;80.90
37304;BME280;23188;51.188;16.374;2023-05-20T14:14:23;100938.77;;;19.46;82.04
37304;BME280;23188;51.188;16.374;2023-05-20T14:18:26;100930.11;;;19.38;81.89
37304;BME280;23188;51.188;16.374;2023-05-20T14:22:30;100930.39;;;19.42;84.10
37304;BME280;23188;51.188;16.374;2023-05-20T14:26:33;100929.50;;;19.52;83.67
37304;BME280;23188;51.188;16.374;2023-05-20T14:30:36;100923.79;;;19.57;83.60
37304;BME280;23188;51.188;16.374;2023-05-20T14:34:40;100913.46;;;19.66;83.13
37304;BME280;23188;51.188;16.374;2023-05-20T14:38:43;100907.95;;;19.82;81.94
37304;BME280;23188;51.188;16.374;2023-05-20T14:42:47;100901.86;;;19.83;80.57
37304;BME280;23188;51.188;16.374;2023-05-20T14:46:50;100900.30;;;19.85;80.76
37304;BME280;23188;51.188;16.374;2023-05-20T14:50:53;100896.09;;;19.93;81.39
37304;BME280;23188;51.188;16.374;2023-05-20T14:54:57;100892.23;;;19.87;80.48
37304;BME280;23188;51.188;16.374;2023-05-20T14:59:00;100890.56;;;19.79;81.43
37304;BME280;23188;51.188;16.374;2023-05-20T15:03:03;100887.42;;;19.81;82.64
37304;BME280;23188;51.188;16.374;2023-05-20T15:07:07;100890.07;;;19.79;81.50
37304;BME280;23188;51.188;16.374;2023-05-20T15:11:10;100886.65;;;19.75;82.19
37304;BME280;23188;51.188;16.374;2023-05-20T15:15:13;100878.83;;;19.76;83.07
37304;BME280;23188;51.188;16.374;2023-05-20T15:19:16;100876.26;;;19.80;82.30
37304;BME280;23188;51.188;16.374;2023-05-20T15:23:19;100876.39;;;19.85;83.76
37304;BME280;23188;51.188;16.374;2023-05-20T15:27:23;100870.80;;;19.82;83.43
37304;BME280;23188;51.188;16.374;2023-05-20T15:31:26;100863.70;;;19.85;82.08
37304;BME280;23188;51.188;16.374;2023-05-20T15:35:29;100859.11;;;19.91;83.16
37304;BME280;23188;51.188;16.374;2023-05-20T15:39:36;100858.05;;;19.79;83.45
37304;BME280;23188;51.188;16.374;2023-05-20T15:43:40;100854.14;;;19.75;84.52
37304;BME280;23188;51.188;16.374;2023-05-20T15:47:44;100856.42;;;19.80;84.32
37304;BME280;23188;51.188;16.374;2023-05-20T15:51:47;100855.45;;;19.74;84.25
37304;BME280;23188;51.188;16.374;2023-05-20T15:56:05;100845.80;;;19.79;83.45
37304;BME280;23188;51.188;16.374;2023-05-20T16:00:09;100840.61;;;19.91;83.64
37304;BME280;23188;51.188;16.374;2023-05-20T16:04:12;100833.60;;;20.11;84.08
37304;BME280;23188;51.188;16.374;2023-05-20T16:08:16;100826.91;;;20.27;83.28
37304;BME280;23188;51.188;16.374;2023-05-20T16:12:19;100828.17;;;20.35;83.24
37304;BME280;23188;51.188;16.374;2023-05-20T16:16:23;100821.27;;;20.35;83.57
37304;BME280;23188;51.188;16.374;2023-05-20T16:20:26;100821.25;;;20.31;83.47
37304;BME280;23188;51.188;16.374;2023-05-20T16:24:29;100817.65;;;20.27;83.51
37304;BME280;23188;51.188;16.374;2023-05-20T16:28:33;100815.42;;;20.23;83.75
37304;BME280;23188;51.188;16.374;2023-05-20T16:32:36;100810.17;;;20.12;83.84
37304;BME280;23188;51.188;16.374;2023-05-20T16:36:39;100809.29;;;20.08;85.12
37304;BME280;23188;51.188;16.374;2023-05-20T16:40:42;100803.58;;;20.04;85.50
37304;BME280;23188;51.188;16.374;2023-05-20T16:44:49;100799.19;;;20.05;86.47
37304;BME280;23188;51.188;16.374;2023-05-20T16:48:52;100800.89;;;20.02;87.45
37304;BME280;23188;51.188;16.374;2023-05-20T16:52:55;100799.48;;;19.92;88.35
37304;BME280;23188;51.188;16.374;2023-05-20T16:57:02;100800.60;;;19.86;89.70
37304;BME280;23188;51.188;16.374;2023-05-20T17:01:08;100801.57;;;19.78;90.91
37304;BME280;23188;51.188;16.374;2023-05-20T17:05:11;100802.64;;;19.69;91.88
37304;BME280;23188;51.188;16.374;2023-05-20T17:09:18;100802.46;;;19.61;93.00
37304;BME280;23188;51.188;16.374;2023-05-20T17:13:21;100796.51;;;19.66;93.67
37304;BME280;23188;51.188;16.374;2023-05-20T17:17:24;100796.60;;;19.78;93.24
37304;BME280;23188;51.188;16.374;2023-05-20T17:21:28;100796.73;;;19.83;92.45
37304;BME280;23188;51.188;16.374;2023-05-20T17:25:31;100789.92;;;19.78;92.15
37304;BME280;23188;51.188;16.374;2023-05-20T17:29:34;100790.30;;;19.76;91.92
37304;BME280;23188;51.188;16.374;2023-05-20T17:33:37;100786.23;;;19.72;92.02
37304;BME280;23188;51.188;16.374;2023-05-20T17:37:41;100785.05;;;19.67;92.27
37304;BME280;23188;51.188;16.374;2023-05-20T17:41:44;100784.88;;;19.68;91.79
37304;BME280;23188;51.188;16.374;2023-05-20T17:45:47;100786.53;;;19.65;91.99
37304;BME280;23188;51.188;16.374;2023-05-20T17:49:51;100783.38;;;19.58;92.90
37304;BME280;23188;51.188;16.374;2023-05-20T17:53:54;100779.47;;;19.55;92.74
37304;BME280;23188;51.188;16.374;2023-05-20T17:58:02;100779.45;;;19.52;92.52
37304;BME280;23188;51.188;16.374;2023-05-20T18:02:05;100785.58;;;19.48;92.68
37304;BME280;23188;51.188;16.374;2023-05-20T18:06:09;100787.96;;;19.31;93.58
37304;BME280;23188;51.188;16.374;2023-05-20T18:10:12;100782.12;;;19.10;94.48
37304;BME280;23188;51.188;16.374;2023-05-20T18:14:16;100783.44;;;19.00;95.25
37304;BME280;23188;51.188;16.374;2023-05-20T18:18:20;100784.33;;;18.90;95.55
37304;BME280;23188;51.188;16.374;2023-05-20T18:22:24;100786.11;;;18.78;94.95
37304;BME280;23188;51.188;16.374;2023-05-20T18:26:28;100783.25;;;18.70;94.35
37304;BME280;23188;51.188;16.374;2023-05-20T18:30:31;100781.68;;;18.59;93.41
37304;BME280;23188;51.188;16.374;2023-05-20T18:34:35;100782.14;;;18.49;92.99
37304;BME280;23188;51.188;16.374;2023-05-20T18:38:38;100777.20;;;18.37;91.98
37304;BME280;23188;51.188;16.374;2023-05-20T18:42:43;100776.46;;;18.24;91.26
37304;BME280;23188;51.188;16.374;2023-05-20T18:46:46;100771.41;;;18.09;92.21
37304;BME280;23188;51.188;16.374;2023-05-20T18:50:49;100774.60;;;17.95;92.25
37304;BME280;23188;51.188;16.374;2023-05-20T18:54:53;100771.76;;;17.78;92.21
37304;BME280;23188;51.188;16.374;2023-05-20T18:58:56;100768.41;;;17.58;90.75
37304;BME280;23188;51.188;16.374;2023-05-20T19:02:59;100767.36;;;17.40;90.44
37304;BME280;23188;51.188;16.374;2023-05-20T19:07:02;100768.74;;;17.23;90.34
37304;BME280;23188;51.188;16.374;2023-05-20T19:11:06;100769.57;;;17.06;92.94
37304;BME280;23188;51.188;16.374;2023-05-20T19:15:09;100770.54;;;16.91;93.45
37304;BME280;23188;51.188;16.374;2023-05-20T19:19:12;100771.38;;;16.77;95.02
37304;BME280;23188;51.188;16.374;2023-05-20T19:23:16;100774.16;;;16.67;95.43
37304;BME280;23188;51.188;16.374;2023-05-20T19:27:20;100776.63;;;16.59;96.06
37304;BME280;23188;51.188;16.374;2023-05-20T19:31:24;100779.48;;;16.50;96.48
37304;BME280;23188;51.188;16.374;2023-05-20T19:35:27;100780.92;;;16.42;97.13
37304;BME280;23188;51.188;16.374;2023-05-20T19:39:30;100779.02;;;16.34;96.89
37304;BME280;23188;51.188;16.374;2023-05-20T19:43:34;100783.20;;;16.24;97.00
37304;BME280;23188;51.188;16.374;2023-05-20T19:47:37;100789.20;;;16.18;97.37
37304;BME280;23188;51.188;16.374;2023-05-20T19:51:40;100787.73;;;16.15;97.32
37304;BME280;23188;51.188;16.374;2023-05-20T19:55:44;100786.14;;;16.10;96.97
37304;BME280;23188;51.188;16.374;2023-05-20T19:59:49;100782.60;;;16.01;96.67
37304;BME280;23188;51.188;16.374;2023-05-20T20:03:55;100777.55;;;15.90;96.85
37304;BME280;23188;51.188;16.374;2023-05-20T20:07:58;100775.92;;;15.84;97.75
37304;BME280;23188;51.188;16.374;2023-05-20T20:12:01;100774.00;;;15.78;96.87
37304;BME280;23188;51.188;16.374;2023-05-20T20:16:05;100774.59;;;15.66;97.44
37304;BME280;23188;51.188;16.374;2023-05-20T20:20:08;100776.77;;;15.57;98.76
37304;BME280;23188;51.188;16.374;2023-05-20T20:24:12;100775.80;;;15.40;98.04
37304;BME280;23188;51.188;16.374;2023-05-20T20:28:15;100774.86;;;15.29;97.11
37304;BME280;23188;51.188;16.374;2023-05-20T20:32:19;100771.16;;;15.21;97.31
37304;BME280;23188;51.188;16.374;2023-05-20T20:36:22;100770.70;;;15.15;96.29
37304;BME280;23188;51.188;16.374;2023-05-20T20:40:26;100776.38;;;15.07;96.63
37304;BME280;23188;51.188;16.374;2023-05-20T20:44:30;100777.52;;;14.97;96.36
37304;BME280;23188;51.188;16.374;2023-05-20T20:48:34;100781.19;;;14.88;97.10
37304;BME280;23188;51.188;16.374;2023-05-20T20:52:38;100785.35;;;14.81;97.28
37304;BME280;23188;51.188;16.374;2023-05-20T20:56:41;100783.06;;;14.75;97.59